sensor_id;sensor_type;location;lat;lon;timestamp;P1;durP1;ratioP1;P2;durP2;ratioP2
74269;SDS011;62754;48.252;11.654;2022-10-16T00:02:05;2.88;;;1.45;;
74269;SDS011;62754;48.252;11.654;2022-10-16T00:04:31;3.78;;;1.67;;
74269;SDS011;62754;48.252;11.654;2022-10-16T00:06:57;2.47;;;1.13;;
74269;SDS011;62754;48.252;11.654;2022-10-16T00:09:22;3.88;;;1.30;;
74269;SDS011;62754;48.252;11.654;2022-10-16T00:11:48;8.35;;;1.50;;
74269;SDS011;62754;48.252;11.654;2022-10-16T00:14:14;3.67;;;1.30;;
74269;SDS011;62754;48.252;11.654;2022-10-16T00:19:06;5.18;;;1.23;;
74269;SDS011;62754;48.252;11.654;2022-10-16T00:21:32;2.53;;;1.25;;
74269;SDS011;62754;48.252;11.654;2022-10-16T00:23:59;5.63;;;1.52;;
74269;SDS011;62754;48.252;11.654;2022-10-16T00:26:28;2.65;;;1.33;;
74269;SDS011;62754;48.252;11.654;2022-10-16T00:28:55;3.75;;;1.73;;
74269;SDS011;62754;48.252;11.654;2022-10-16T00:31:21;2.25;;;1.20;;
74269;SDS011;62754;48.252;11.654;2022-10-16T00:33:48;4.43;;;1.50;;
74269;SDS011;62754;48.252;11.654;2022-10-16T00:36:15;2.97;;;1.27;;
74269;SDS011;62754;48.252;11.654;2022-10-16T00:38:43;3.17;;;1.73;;
74269;SDS011;62754;48.252;11.654;2022-10-16T00:41:13;3.47;;;1.30;;
74269;SDS011;62754;48.252;11.654;2022-10-16T00:51:28;3.97;;;1.40;;
74269;SDS011;62754;48.252;11.654;2022-10-16T00:53:56;2.55;;;1.30;;
74269;SDS011;62754;48.252;11.654;2022-10-16T00:56:23;2.50;;;1.20;;
74269;SDS011;62754;48.252;11.654;2022-10-16T00:58:49;3.70;;;1.10;;
74269;SDS011;62754;48.252;11.654;2022-10-16T01:01:15;3.22;;;1.50;;
74269;SDS011;62754;48.252;11.654;2022-10-16T01:03:41;2.92;;;1.60;;
74269;SDS011;62754;48.252;11.654;2022-10-16T01:06:12;3.03;;;1.40;;
74269;SDS011;62754;48.252;11.654;2022-10-16T01:09:11;4.40;;;1.45;;
74269;SDS011;62754;48.252;11.654;2022-10-16T01:12:01;3.25;;;1.17;;
74269;SDS011;62754;48.252;11.654;2022-10-16T01:14:40;4.97;;;1.67;;
74269;SDS011;62754;48.252;11.654;2022-10-16T01:17:18;5.20;;;1.60;;
74269;SDS011;62754;48.252;11.654;2022-10-16T01:22:31;2.97;;;1.40;;
74269;SDS011;62754;48.252;11.654;2022-10-16T01:25:23;3.22;;;1.50;;
74269;SDS011;62754;48.252;11.654;2022-10-16T01:27:56;3.92;;;1.70;;
74269;SDS011;62754;48.252;11.654;2022-10-16T01:30:27;4.45;;;1.73;;
74269;SDS011;62754;48.252;11.654;2022-10-16T01:35:38;3.60;;;1.33;;
74269;SDS011;62754;48.252;11.654;2022-10-16T01:40:49;2.17;;;0.95;;
74269;SDS011;62754;48.252;11.654;2022-10-16T01:43:22;2.55;;;1.10;;
74269;SDS011;62754;48.252;11.654;2022-10-16T01:45:55;2.30;;;1.20;;
74269;SDS011;62754;48.252;11.654;2022-10-16T01:48:22;2.75;;;1.15;;
74269;SDS011;62754;48.252;11.654;2022-10-16T01:50:52;2.20;;;1.20;;
74269;SDS011;62754;48.252;11.654;2022-10-16T01:53:22;4.18;;;1.35;;
74269;SDS011;62754;48.252;11.654;2022-10-16T01:55:50;2.47;;;1.08;;
74269;SDS011;62754;48.252;11.654;2022-10-16T01:58:19;6.60;;;1.52;;
74269;SDS011;62754;48.252;11.654;2022-10-16T02:00:47;2.20;;;1.10;;
74269;SDS011;62754;48.252;11.654;2022-10-16T02:03:14;3.10;;;1.00;;
74269;SDS011;62754;48.252;11.654;2022-10-16T02:05:45;2.20;;;0.93;;
74269;SDS011;62754;48.252;11.654;2022-10-16T02:08:13;2.38;;;1.00;;
74269;SDS011;62754;48.252;11.654;2022-10-16T02:10:39;2.47;;;1.00;;
74269;SDS011;62754;48.252;11.654;2022-10-16T02:15:33;3.00;;;1.10;;
74269;SDS011;62754;48.252;11.654;2022-10-16T02:17:59;3.03;;;1.48;;
74269;SDS011;62754;48.252;11.654;2022-10-16T02:20:25;2.38;;;1.00;;
74269;SDS011;62754;48.252;11.654;2022-10-16T02:22:54;2.10;;;0.93;;
74269;SDS011;62754;48.252;11.654;2022-10-16T02:25:24;2.72;;;1.10;;
74269;SDS011;62754;48.252;11.654;2022-10-16T02:27:57;2.47;;;1.10;;
74269;SDS011;62754;48.252;11.654;2022-10-16T02:30:47;3.30;;;1.00;;
74269;SDS011;62754;48.252;11.654;2022-10-16T02:33:17;2.80;;;0.93;;
74269;SDS011;62754;48.252;11.654;2022-10-16T02:35:44;3.25;;;1.15;;
74269;SDS011;62754;48.252;11.654;2022-10-16T02:38:14;2.65;;;1.05;;
74269;SDS011;62754;48.252;11.654;2022-10-16T02:40:41;2.95;;;1.10;;
74269;SDS011;62754;48.252;11.654;2022-10-16T02:43:07;3.25;;;1.10;;
74269;SDS011;62754;48.252;11.654;2022-10-16T02:45:34;1.92;;;0.93;;
74269;SDS011;62754;48.252;11.654;2022-10-16T02:47:59;2.47;;;1.10;;
74269;SDS011;62754;48.252;11.654;2022-10-16T02:50:25;5.63;;;1.00;;
74269;SDS011;62754;48.252;11.654;2022-10-16T02:52:51;2.72;;;0.93;;
74269;SDS011;62754;48.252;11.654;2022-10-16T02:55:17;2.72;;;1.20;;
74269;SDS011;62754;48.252;11.654;2022-10-16T02:57:43;2.28;;;1.10;;
74269;SDS011;62754;48.252;11.654;2022-10-16T03:00:09;2.20;;;0.85;;
74269;SDS011;62754;48.252;11.654;2022-10-16T03:02:37;2.30;;;1.00;;
74269;SDS011;62754;48.252;11.654;2022-10-16T03:05:03;1.83;;;0.90;;
74269;SDS011;62754;48.252;11.654;2022-10-16T03:07:29;2.28;;;1.15;;
74269;SDS011;62754;48.252;11.654;2022-10-16T03:09:55;2.67;;;0.98;;
74269;SDS011;62754;48.252;11.654;2022-10-16T03:12:21;2.38;;;1.10;;
74269;SDS011;62754;48.252;11.654;2022-10-16T03:14:47;3.65;;;1.10;;
74269;SDS011;62754;48.252;11.654;2022-10-16T03:17:13;2.30;;;1.10;;
74269;SDS011;62754;48.252;11.654;2022-10-16T03:19:38;2.63;;;1.00;;
74269;SDS011;62754;48.252;11.654;2022-10-16T03:22:04;2.95;;;1.08;;
74269;SDS011;62754;48.252;11.654;2022-10-16T03:24:30;2.50;;;1.10;;
74269;SDS011;62754;48.252;11.654;2022-10-16T03:26:56;5.50;;;1.30;;
74269;SDS011;62754;48.252;11.654;2022-10-16T03:29:22;2.47;;;0.90;;
74269;SDS011;62754;48.252;11.654;2022-10-16T03:31:47;3.80;;;0.90;;
74269;SDS011;62754;48.252;11.654;2022-10-16T03:34:13;2.33;;;1.08;;
74269;SDS011;62754;48.252;11.654;2022-10-16T03:36:39;2.20;;;0.88;;
74269;SDS011;62754;48.252;11.654;2022-10-16T03:39:05;3.33;;;1.02;;
74269;SDS011;62754;48.252;11.654;2022-10-16T03:41:30;2.30;;;0.95;;
74269;SDS011;62754;48.252;11.654;2022-10-16T03:43:56;2.17;;;0.80;;
74269;SDS011;62754;48.252;11.654;2022-10-16T03:46:22;5.82;;;1.13;;
74269;SDS011;62754;48.252;11.654;2022-10-16T03:48:48;2.53;;;0.98;;
74269;SDS011;62754;48.252;11.654;2022-10-16T03:51:13;2.63;;;0.90;;
74269;SDS011;62754;48.252;11.654;2022-10-16T03:53:39;2.72;;;0.98;;
74269;SDS011;62754;48.252;11.654;2022-10-16T03:56:05;3.22;;;1.00;;
74269;SDS011;62754;48.252;11.654;2022-10-16T03:58:31;1.88;;;0.90;;
74269;SDS011;62754;48.252;11.654;2022-10-16T04:00:57;2.58;;;1.02;;
74269;SDS011;62754;48.252;11.654;2022-10-16T04:03:22;3.22;;;1.23;;
74269;SDS011;62754;48.252;11.654;2022-10-16T04:05:49;3.17;;;0.90;;
74269;SDS011;62754;48.252;11.654;2022-10-16T04:08:14;1.77;;;0.93;;
74269;SDS011;62754;48.252;11.654;2022-10-16T04:10:42;2.15;;;1.08;;
74269;SDS011;62754;48.252;11.654;2022-10-16T04:13:08;4.00;;;1.10;;
74269;SDS011;62754;48.252;11.654;2022-10-16T04:15:34;3.20;;;1.20;;
74269;SDS011;62754;48.252;11.654;2022-10-16T04:17:59;3.75;;;1.17;;
74269;SDS011;62754;48.252;11.654;2022-10-16T04:20:25;2.60;;;0.93;;
74269;SDS011;62754;48.252;11.654;2022-10-16T04:22:51;3.53;;;1.10;;
74269;SDS011;62754;48.252;11.654;2022-10-16T04:25:17;2.10;;;1.00;;
74269;SDS011;62754;48.252;11.654;2022-10-16T04:27:42;3.50;;;1.08;;
74269;SDS011;62754;48.252;11.654;2022-10-16T04:30:08;4.88;;;2.00;;
74269;SDS011;62754;48.252;11.654;2022-10-16T04:32:34;5.20;;;2.50;;
74269;SDS011;62754;48.252;11.654;2022-10-16T04:35:00;3.90;;;1.30;;
74269;SDS011;62754;48.252;11.654;2022-10-16T04:37:26;2.53;;;1.08;;
74269;SDS011;62754;48.252;11.654;2022-10-16T04:39:53;2.80;;;1.13;;
74269;SDS011;62754;48.252;11.654;2022-10-16T04:42:19;3.08;;;1.00;;
74269;SDS011;62754;48.252;11.654;2022-10-16T04:44:46;2.72;;;1.00;;
74269;SDS011;62754;48.252;11.654;2022-10-16T04:47:12;5.40;;;1.10;;
74269;SDS011;62754;48.252;11.654;2022-10-16T04:49:39;3.10;;;1.10;;
74269;SDS011;62754;48.252;11.654;2022-10-16T04:52:04;2.30;;;1.05;;
74269;SDS011;62754;48.252;11.654;2022-10-16T04:54:31;1.75;;;0.90;;
74269;SDS011;62754;48.252;11.654;2022-10-16T04:56:56;2.80;;;0.88;;
74269;SDS011;62754;48.252;11.654;2022-10-16T04:59:22;1.85;;;0.85;;
74269;SDS011;62754;48.252;11.654;2022-10-16T05:01:48;3.22;;;0.90;;
74269;SDS011;62754;48.252;11.654;2022-10-16T05:04:14;2.70;;;0.70;;
74269;SDS011;62754;48.252;11.654;2022-10-16T05:06:40;2.75;;;0.80;;
74269;SDS011;62754;48.252;11.654;2022-10-16T05:09:07;2.22;;;1.00;;
74269;SDS011;62754;48.252;11.654;2022-10-16T05:11:34;3.63;;;0.95;;
74269;SDS011;62754;48.252;11.654;2022-10-16T05:14:00;1.98;;;0.70;;
74269;SDS011;62754;48.252;11.654;2022-10-16T05:16:26;1.90;;;0.82;;
74269;SDS011;62754;48.252;11.654;2022-10-16T05:18:52;2.03;;;0.90;;
74269;SDS011;62754;48.252;11.654;2022-10-16T05:21:18;2.60;;;0.85;;
74269;SDS011;62754;48.252;11.654;2022-10-16T05:23:45;1.55;;;0.80;;
74269;SDS011;62754;48.252;11.654;2022-10-16T05:26:11;2.58;;;0.85;;
74269;SDS011;62754;48.252;11.654;2022-10-16T05:28:37;3.22;;;0.90;;
74269;SDS011;62754;48.252;11.654;2022-10-16T05:31:05;4.00;;;1.08;;
74269;SDS011;62754;48.252;11.654;2022-10-16T05:33:32;2.40;;;1.00;;
74269;SDS011;62754;48.252;11.654;2022-10-16T05:36:05;2.35;;;1.00;;
74269;SDS011;62754;48.252;11.654;2022-10-16T05:38:32;2.15;;;0.93;;
74269;SDS011;62754;48.252;11.654;2022-10-16T05:40:57;4.85;;;1.02;;
74269;SDS011;62754;48.252;11.654;2022-10-16T05:43:23;5.07;;;1.10;;
74269;SDS011;62754;48.252;11.654;2022-10-16T05:45:55;2.08;;;0.82;;
74269;SDS011;62754;48.252;11.654;2022-10-16T05:48:22;3.65;;;1.30;;
74269;SDS011;62754;48.252;11.654;2022-10-16T05:50:48;2.75;;;1.10;;
74269;SDS011;62754;48.252;11.654;2022-10-16T05:53:22;2.67;;;1.05;;
74269;SDS011;62754;48.252;11.654;2022-10-16T05:55:51;3.47;;;1.05;;
74269;SDS011;62754;48.252;11.654;2022-10-16T05:58:17;3.03;;;1.30;;
74269;SDS011;62754;48.252;11.654;2022-10-16T06:00:43;3.00;;;1.20;;
74269;SDS011;62754;48.252;11.654;2022-10-16T06:03:09;3.38;;;1.20;;
74269;SDS011;62754;48.252;11.654;2022-10-16T06:05:34;2.97;;;1.20;;
74269;SDS011;62754;48.252;11.654;2022-10-16T06:08:00;2.28;;;1.10;;
74269;SDS011;62754;48.252;11.654;2022-10-16T06:10:26;1.80;;;0.90;;
74269;SDS011;62754;48.252;11.654;2022-10-16T06:12:52;2.35;;;1.00;;
74269;SDS011;62754;48.252;11.654;2022-10-16T06:15:17;2.05;;;0.90;;
74269;SDS011;62754;48.252;11.654;2022-10-16T06:17:43;2.15;;;1.00;;
74269;SDS011;62754;48.252;11.654;2022-10-16T06:20:09;2.90;;;0.90;;
74269;SDS011;62754;48.252;11.654;2022-10-16T06:22:35;2.40;;;0.80;;
74269;SDS011;62754;48.252;11.654;2022-10-16T06:25:00;4.40;;;1.20;;
74269;SDS011;62754;48.252;11.654;2022-10-16T06:27:26;1.88;;;0.93;;
74269;SDS011;62754;48.252;11.654;2022-10-16T06:29:52;3.03;;;1.10;;
74269;SDS011;62754;48.252;11.654;2022-10-16T06:32:18;2.95;;;1.20;;
74269;SDS011;62754;48.252;11.654;2022-10-16T06:34:43;2.45;;;1.00;;
74269;SDS011;62754;48.252;11.654;2022-10-16T06:37:09;3.08;;;1.02;;
74269;SDS011;62754;48.252;11.654;2022-10-16T06:39:35;2.47;;;1.05;;
74269;SDS011;62754;48.252;11.654;2022-10-16T06:42:01;2.00;;;0.85;;
74269;SDS011;62754;48.252;11.654;2022-10-16T06:44:27;2.35;;;1.00;;
74269;SDS011;62754;48.252;11.654;2022-10-16T06:46:52;2.22;;;1.25;;
74269;SDS011;62754;48.252;11.654;2022-10-16T06:49:18;3.42;;;1.20;;
74269;SDS011;62754;48.252;11.654;2022-10-16T06:51:44;2.85;;;0.95;;
74269;SDS011;62754;48.252;11.654;2022-10-16T06:54:10;2.33;;;1.00;;
74269;SDS011;62754;48.252;11.654;2022-10-16T06:56:36;2.70;;;0.93;;
74269;SDS011;62754;48.252;11.654;2022-10-16T06:59:02;4.90;;;1.10;;
74269;SDS011;62754;48.252;11.654;2022-10-16T07:01:28;2.97;;;1.02;;
74269;SDS011;62754;48.252;11.654;2022-10-16T07:03:54;3.38;;;0.90;;
74269;SDS011;62754;48.252;11.654;2022-10-16T07:06:21;2.50;;;1.13;;
74269;SDS011;62754;48.252;11.654;2022-10-16T07:08:48;4.93;;;1.23;;
74269;SDS011;62754;48.252;11.654;2022-10-16T07:11:16;7.22;;;1.15;;
74269;SDS011;62754;48.252;11.654;2022-10-16T07:13:44;4.75;;;1.58;;
74269;SDS011;62754;48.252;11.654;2022-10-16T07:16:13;2.95;;;1.30;;
74269;SDS011;62754;48.252;11.654;2022-10-16T07:18:41;2.60;;;1.15;;
74269;SDS011;62754;48.252;11.654;2022-10-16T07:21:11;2.80;;;1.13;;
74269;SDS011;62754;48.252;11.654;2022-10-16T07:23:39;3.13;;;1.10;;
74269;SDS011;62754;48.252;11.654;2022-10-16T07:26:06;2.40;;;1.10;;
74269;SDS011;62754;48.252;11.654;2022-10-16T07:28:32;2.95;;;1.20;;
74269;SDS011;62754;48.252;11.654;2022-10-16T07:33:28;2.70;;;1.35;;
74269;SDS011;62754;48.252;11.654;2022-10-16T07:35:55;5.00;;;1.58;;
74269;SDS011;62754;48.252;11.654;2022-10-16T07:38:21;2.55;;;1.20;;
74269;SDS011;62754;48.252;11.654;2022-10-16T07:40:47;3.80;;;1.85;;
74269;SDS011;62754;48.252;11.654;2022-10-16T07:43:13;2.63;;;1.33;;
74269;SDS011;62754;48.252;11.654;2022-10-16T07:48:12;2.58;;;1.33;;
74269;SDS011;62754;48.252;11.654;2022-10-16T07:50:41;5.00;;;1.25;;
74269;SDS011;62754;48.252;11.654;2022-10-16T07:53:10;3.15;;;1.40;;
74269;SDS011;62754;48.252;11.654;2022-10-16T07:58:02;3.67;;;1.30;;
74269;SDS011;62754;48.252;11.654;2022-10-16T08:00:28;7.60;;;2.00;;
74269;SDS011;62754;48.252;11.654;2022-10-16T08:02:54;2.22;;;1.20;;
74269;SDS011;62754;48.252;11.654;2022-10-16T08:05:19;3.15;;;1.20;;
74269;SDS011;62754;48.252;11.654;2022-10-16T08:07:49;2.78;;;1.30;;
74269;SDS011;62754;48.252;11.654;2022-10-16T08:10:18;5.50;;;1.55;;
74269;SDS011;62754;48.252;11.654;2022-10-16T08:12:45;5.47;;;1.33;;
74269;SDS011;62754;48.252;11.654;2022-10-16T08:15:11;3.13;;;1.38;;
74269;SDS011;62754;48.252;11.654;2022-10-16T08:17:37;3.80;;;1.27;;
74269;SDS011;62754;48.252;11.654;2022-10-16T08:20:03;2.50;;;1.15;;
74269;SDS011;62754;48.252;11.654;2022-10-16T08:22:30;4.30;;;1.50;;
74269;SDS011;62754;48.252;11.654;2022-10-16T08:24:55;3.75;;;1.50;;
74269;SDS011;62754;48.252;11.654;2022-10-16T08:27:21;3.28;;;1.15;;
74269;SDS011;62754;48.252;11.654;2022-10-16T08:29:48;3.00;;;1.38;;
74269;SDS011;62754;48.252;11.654;2022-10-16T08:32:14;2.20;;;1.20;;
74269;SDS011;62754;48.252;11.654;2022-10-16T08:34:40;2.75;;;1.20;;
74269;SDS011;62754;48.252;11.654;2022-10-16T08:37:06;5.30;;;1.48;;
74269;SDS011;62754;48.252;11.654;2022-10-16T08:39:32;2.85;;;1.45;;
74269;SDS011;62754;48.252;11.654;2022-10-16T08:47:16;2.67;;;1.42;;
74269;SDS011;62754;48.252;11.654;2022-10-16T08:49:51;2.30;;;1.33;;
74269;SDS011;62754;48.252;11.654;2022-10-16T08:52:29;3.97;;;1.50;;
74269;SDS011;62754;48.252;11.654;2022-10-16T08:54:57;3.33;;;1.17;;
74269;SDS011;62754;48.252;11.654;2022-10-16T08:57:24;2.92;;;1.30;;
74269;SDS011;62754;48.252;11.654;2022-10-16T08:59:51;3.03;;;1.45;;
74269;SDS011;62754;48.252;11.654;2022-10-16T09:02:22;11.35;;;4.05;;
74269;SDS011;62754;48.252;11.654;2022-10-16T09:05:04;4.32;;;2.20;;
74269;SDS011;62754;48.252;11.654;2022-10-16T09:07:48;3.60;;;1.67;;
74269;SDS011;62754;48.252;11.654;2022-10-16T09:13:28;2.80;;;1.50;;
74269;SDS011;62754;48.252;11.654;2022-10-16T09:16:10;3.00;;;1.50;;
74269;SDS011;62754;48.252;11.654;2022-10-16T09:18:49;4.43;;;1.40;;
74269;SDS011;62754;48.252;11.654;2022-10-16T09:21:21;3.25;;;1.45;;
74269;SDS011;62754;48.252;11.654;2022-10-16T09:23:50;2.72;;;1.23;;
74269;SDS011;62754;48.252;11.654;2022-10-16T09:26:16;2.58;;;1.38;;
74269;SDS011;62754;48.252;11.654;2022-10-16T09:28:43;2.53;;;1.35;;
74269;SDS011;62754;48.252;11.654;2022-10-16T09:31:13;3.00;;;1.25;;
74269;SDS011;62754;48.252;11.654;2022-10-16T09:33:41;2.70;;;1.08;;
74269;SDS011;62754;48.252;11.654;2022-10-16T09:36:09;3.80;;;1.40;;
74269;SDS011;62754;48.252;11.654;2022-10-16T09:38:37;3.50;;;1.38;;
74269;SDS011;62754;48.252;11.654;2022-10-16T09:41:21;2.92;;;1.08;;
74269;SDS011;62754;48.252;11.654;2022-10-16T09:43:57;2.10;;;1.10;;
74269;SDS011;62754;48.252;11.654;2022-10-16T09:46:26;3.28;;;1.30;;
74269;SDS011;62754;48.252;11.654;2022-10-16T09:51:50;2.30;;;1.15;;
74269;SDS011;62754;48.252;11.654;2022-10-16T09:54:27;3.65;;;1.25;;
74269;SDS011;62754;48.252;11.654;2022-10-16T09:57:03;3.28;;;1.42;;
74269;SDS011;62754;48.252;11.654;2022-10-16T09:59:31;2.97;;;1.40;;
74269;SDS011;62754;48.252;11.654;2022-10-16T10:02:00;3.25;;;1.30;;
74269;SDS011;62754;48.252;11.654;2022-10-16T10:04:37;2.90;;;1.42;;
74269;SDS011;62754;48.252;11.654;2022-10-16T10:07:06;2.45;;;1.00;;
74269;SDS011;62754;48.252;11.654;2022-10-16T10:09:43;2.30;;;1.30;;
74269;SDS011;62754;48.252;11.654;2022-10-16T10:12:29;3.95;;;1.30;;
74269;SDS011;62754;48.252;11.654;2022-10-16T10:15:12;2.58;;;0.90;;
74269;SDS011;62754;48.252;11.654;2022-10-16T10:17:46;2.47;;;0.80;;
74269;SDS011;62754;48.252;11.654;2022-10-16T10:20:29;2.33;;;0.95;;
74269;SDS011;62754;48.252;11.654;2022-10-16T10:22:57;3.33;;;0.88;;
74269;SDS011;62754;48.252;11.654;2022-10-16T10:28:17;2.00;;;0.98;;
74269;SDS011;62754;48.252;11.654;2022-10-16T10:36:00;2.35;;;0.75;;
74269;SDS011;62754;48.252;11.654;2022-10-16T10:53:46;3.00;;;1.20;;
74269;SDS011;62754;48.252;11.654;2022-10-16T11:02:04;2.35;;;0.95;;
74269;SDS011;62754;48.252;11.654;2022-10-16T11:09:48;2.20;;;1.20;;
74269;SDS011;62754;48.252;11.654;2022-10-16T11:12:26;2.67;;;1.25;;
74269;SDS011;62754;48.252;11.654;2022-10-16T11:17:46;2.30;;;1.00;;
74269;SDS011;62754;48.252;11.654;2022-10-16T11:20:20;1.45;;;0.60;;
74269;SDS011;62754;48.252;11.654;2022-10-16T11:22:50;1.80;;;0.70;;
74269;SDS011;62754;48.252;11.654;2022-10-16T11:25:23;1.95;;;0.60;;
74269;SDS011;62754;48.252;11.654;2022-10-16T11:34:01;1.55;;;0.55;;
74269;SDS011;62754;48.252;11.654;2022-10-16T11:41:53;1.65;;;0.75;;
74269;SDS011;62754;48.252;11.654;2022-10-16T11:55:56;1.30;;;0.50;;
74269;SDS011;62754;48.252;11.654;2022-10-16T12:00:51;1.42;;;0.55;;
74269;SDS011;62754;48.252;11.654;2022-10-16T12:08:53;1.35;;;0.45;;
74269;SDS011;62754;48.252;11.654;2022-10-16T12:11:22;2.80;;;0.60;;
74269;SDS011;62754;48.252;11.654;2022-10-16T12:13:48;1.33;;;0.40;;
74269;SDS011;62754;48.252;11.654;2022-10-16T12:21:07;1.40;;;0.40;;
74269;SDS011;62754;48.252;11.654;2022-10-16T12:23:37;1.35;;;0.50;;
74269;SDS011;62754;48.252;11.654;2022-10-16T12:26:12;1.45;;;0.65;;
74269;SDS011;62754;48.252;11.654;2022-10-16T12:31:04;1.27;;;0.57;;
74269;SDS011;62754;48.252;11.654;2022-10-16T12:33:33;2.88;;;0.60;;
74269;SDS011;62754;48.252;11.654;2022-10-16T12:36:02;1.08;;;0.50;;
74269;SDS011;62754;48.252;11.654;2022-10-16T12:38:35;1.30;;;0.50;;
74269;SDS011;62754;48.252;11.654;2022-10-16T12:41:05;1.63;;;0.65;;
74269;SDS011;62754;48.252;11.654;2022-10-16T12:43:39;1.75;;;0.70;;
74269;SDS011;62754;48.252;11.654;2022-10-16T12:48:36;1.20;;;0.60;;
74269;SDS011;62754;48.252;11.654;2022-10-16T12:51:12;3.35;;;0.60;;
74269;SDS011;62754;48.252;11.654;2022-10-16T12:53:46;0.88;;;0.50;;
74269;SDS011;62754;48.252;11.654;2022-10-16T12:59:12;1.48;;;0.60;;
74269;SDS011;62754;48.252;11.654;2022-10-16T13:10:26;1.38;;;0.40;;
74269;SDS011;62754;48.252;11.654;2022-10-16T13:16:25;2.03;;;0.60;;
74269;SDS011;62754;48.252;11.654;2022-10-16T13:22:23;1.45;;;0.57;;
74269;SDS011;62754;48.252;11.654;2022-10-16T13:30:41;2.17;;;0.70;;
74269;SDS011;62754;48.252;11.654;2022-10-16T13:33:16;1.70;;;0.60;;
74269;SDS011;62754;48.252;11.654;2022-10-16T13:38:29;1.70;;;0.60;;
74269;SDS011;62754;48.252;11.654;2022-10-16T13:40:58;2.30;;;1.08;;
74269;SDS011;62754;48.252;11.654;2022-10-16T13:43:35;2.95;;;0.90;;
74269;SDS011;62754;48.252;11.654;2022-10-16T13:46:11;1.30;;;0.60;;
74269;SDS011;62754;48.252;11.654;2022-10-16T13:48:39;1.95;;;0.77;;
74269;SDS011;62754;48.252;11.654;2022-10-16T13:51:16;1.63;;;0.50;;
74269;SDS011;62754;48.252;11.654;2022-10-16T13:53:43;3.03;;;0.90;;
74269;SDS011;62754;48.252;11.654;2022-10-16T13:56:11;1.58;;;0.60;;
74269;SDS011;62754;48.252;11.654;2022-10-16T13:58:38;1.25;;;0.55;;
74269;SDS011;62754;48.252;11.654;2022-10-16T14:01:04;1.80;;;0.60;;
74269;SDS011;62754;48.252;11.654;2022-10-16T14:03:40;1.52;;;0.65;;
74269;SDS011;62754;48.252;11.654;2022-10-16T14:06:11;1.35;;;0.52;;
74269;SDS011;62754;48.252;11.654;2022-10-16T14:08:41;1.27;;;0.52;;
74269;SDS011;62754;48.252;11.654;2022-10-16T14:11:09;1.52;;;0.57;;
74269;SDS011;62754;48.252;11.654;2022-10-16T14:13:37;1.40;;;0.63;;
74269;SDS011;62754;48.252;11.654;2022-10-16T14:16:08;1.52;;;0.65;;
74269;SDS011;62754;48.252;11.654;2022-10-16T14:18:37;1.63;;;0.70;;
74269;SDS011;62754;48.252;11.654;2022-10-16T14:21:11;1.60;;;0.70;;
74269;SDS011;62754;48.252;11.654;2022-10-16T14:23:40;2.45;;;0.60;;
74269;SDS011;62754;48.252;11.654;2022-10-16T14:26:12;1.85;;;0.70;;
74269;SDS011;62754;48.252;11.654;2022-10-16T14:28:39;4.68;;;0.90;;
74269;SDS011;62754;48.252;11.654;2022-10-16T14:33:52;2.33;;;0.90;;
74269;SDS011;62754;48.252;11.654;2022-10-16T14:39:03;1.88;;;1.00;;
74269;SDS011;62754;48.252;11.654;2022-10-16T14:41:31;1.77;;;0.70;;
74269;SDS011;62754;48.252;11.654;2022-10-16T14:44:05;1.70;;;0.82;;
74269;SDS011;62754;48.252;11.654;2022-10-16T14:49:00;2.65;;;0.90;;
74269;SDS011;62754;48.252;11.654;2022-10-16T14:51:41;1.75;;;0.90;;
74269;SDS011;62754;48.252;11.654;2022-10-16T14:54:08;2.55;;;0.80;;
74269;SDS011;62754;48.252;11.654;2022-10-16T14:56:48;1.63;;;0.75;;
74269;SDS011;62754;48.252;11.654;2022-10-16T14:59:18;2.35;;;0.90;;
74269;SDS011;62754;48.252;11.654;2022-10-16T15:01:47;1.73;;;0.65;;
74269;SDS011;62754;48.252;11.654;2022-10-16T15:04:13;1.50;;;0.70;;
74269;SDS011;62754;48.252;11.654;2022-10-16T15:06:39;1.92;;;0.85;;
74269;SDS011;62754;48.252;11.654;2022-10-16T15:09:05;1.20;;;0.60;;
74269;SDS011;62754;48.252;11.654;2022-10-16T15:11:31;2.28;;;0.95;;
74269;SDS011;62754;48.252;11.654;2022-10-16T15:14:00;2.13;;;0.80;;
74269;SDS011;62754;48.252;11.654;2022-10-16T15:16:26;4.47;;;0.80;;
74269;SDS011;62754;48.252;11.654;2022-10-16T15:18:52;2.25;;;0.70;;
74269;SDS011;62754;48.252;11.654;2022-10-16T15:21:25;2.45;;;0.70;;
74269;SDS011;62754;48.252;11.654;2022-10-16T15:23:51;3.15;;;0.90;;
74269;SDS011;62754;48.252;11.654;2022-10-16T15:26:17;2.13;;;1.05;;
74269;SDS011;62754;48.252;11.654;2022-10-16T15:28:43;3.28;;;0.80;;
74269;SDS011;62754;48.252;11.654;2022-10-16T15:31:09;4.55;;;2.97;;
74269;SDS011;62754;48.252;11.654;2022-10-16T15:33:34;5.10;;;2.88;;
74269;SDS011;62754;48.252;11.654;2022-10-16T15:36:01;5.40;;;2.20;;
74269;SDS011;62754;48.252;11.654;2022-10-16T15:38:28;4.60;;;2.00;;
74269;SDS011;62754;48.252;11.654;2022-10-16T15:40:55;2.58;;;1.58;;
74269;SDS011;62754;48.252;11.654;2022-10-16T15:43:21;3.13;;;1.83;;
74269;SDS011;62754;48.252;11.654;2022-10-16T15:48:23;3.78;;;1.40;;
74269;SDS011;62754;48.252;11.654;2022-10-16T15:50:49;2.35;;;1.27;;
74269;SDS011;62754;48.252;11.654;2022-10-16T15:53:20;2.00;;;1.10;;
74269;SDS011;62754;48.252;11.654;2022-10-16T15:55:46;2.42;;;1.15;;
74269;SDS011;62754;48.252;11.654;2022-10-16T15:58:12;2.38;;;1.00;;
74269;SDS011;62754;48.252;11.654;2022-10-16T16:00:38;2.38;;;0.90;;
74269;SDS011;62754;48.252;11.654;2022-10-16T16:03:04;4.40;;;0.95;;
74269;SDS011;62754;48.252;11.654;2022-10-16T16:05:30;3.10;;;1.45;;
74269;SDS011;62754;48.252;11.654;2022-10-16T16:07:56;2.95;;;0.90;;
74269;SDS011;62754;48.252;11.654;2022-10-16T16:10:22;3.50;;;1.10;;
74269;SDS011;62754;48.252;11.654;2022-10-16T16:12:48;3.95;;;0.93;;
74269;SDS011;62754;48.252;11.654;2022-10-16T16:15:14;5.50;;;1.20;;
74269;SDS011;62754;48.252;11.654;2022-10-16T16:17:40;3.10;;;1.00;;
74269;SDS011;62754;48.252;11.654;2022-10-16T16:20:06;4.78;;;0.80;;
74269;SDS011;62754;48.252;11.654;2022-10-16T16:22:32;3.00;;;0.90;;
74269;SDS011;62754;48.252;11.654;2022-10-16T16:24:58;1.83;;;0.68;;
74269;SDS011;62754;48.252;11.654;2022-10-16T16:27:24;4.22;;;1.08;;
74269;SDS011;62754;48.252;11.654;2022-10-16T16:29:50;2.60;;;1.10;;
74269;SDS011;62754;48.252;11.654;2022-10-16T16:32:16;2.83;;;1.00;;
74269;SDS011;62754;48.252;11.654;2022-10-16T16:34:42;2.70;;;1.08;;
74269;SDS011;62754;48.252;11.654;2022-10-16T16:37:08;2.28;;;0.88;;
74269;SDS011;62754;48.252;11.654;2022-10-16T16:39:33;1.70;;;0.70;;
74269;SDS011;62754;48.252;11.654;2022-10-16T16:41:59;3.40;;;1.10;;
74269;SDS011;62754;48.252;11.654;2022-10-16T16:44:25;2.42;;;1.00;;
74269;SDS011;62754;48.252;11.654;2022-10-16T16:46:51;5.82;;;2.30;;
74269;SDS011;62754;48.252;11.654;2022-10-16T16:49:17;3.92;;;2.30;;
74269;SDS011;62754;48.252;11.654;2022-10-16T16:51:43;4.18;;;2.65;;
74269;SDS011;62754;48.252;11.654;2022-10-16T16:54:09;4.03;;;2.08;;
74269;SDS011;62754;48.252;11.654;2022-10-16T16:56:35;6.55;;;3.05;;
74269;SDS011;62754;48.252;11.654;2022-10-16T16:59:01;4.38;;;2.50;;
74269;SDS011;62754;48.252;11.654;2022-10-16T17:01:27;5.43;;;2.20;;
74269;SDS011;62754;48.252;11.654;2022-10-16T17:03:54;22.20;;;11.35;;
74269;SDS011;62754;48.252;11.654;2022-10-16T17:06:22;19.90;;;11.65;;
74269;SDS011;62754;48.252;11.654;2022-10-16T17:08:52;18.75;;;8.95;;
74269;SDS011;62754;48.252;11.654;2022-10-16T17:11:22;14.40;;;7.40;;
74269;SDS011;62754;48.252;11.654;2022-10-16T17:13:50;11.50;;;6.05;;
74269;SDS011;62754;48.252;11.654;2022-10-16T17:16:16;11.43;;;5.68;;